Time;durP1;ratioP1;P1;durP2;ratioP2;P2;SDS_P1;SDS_P2;PMS_P1;PMS_P2;Temp;Humidity;BMP_temperature;BMP_pressure;BME280_temperature;BME280_humidity;BME280_pressure;Samples;Min_cycle;Max_cycle;Signal;HPM_P1;HPM_P2
2023/06/29 00:01:24;;;;;;;6.63;1.40;;;;;;;;;;4790949;29;20059;-73
2023/06/29 00:03:54;;;;;;;4.28;1.52;;;;;;;;;;4791965;29;20047;-74
2023/06/29 00:06:24;;;;;;;4.70;1.30;;;;;;;;;;4795232;29;20613;-75
2023/06/29 00:08:55;;;;;;;4.50;1.40;;;;;;;;;;4795039;29;20062;-74
2023/06/29 00:11:25;;;;;;;11.82;1.60;;;;;;;;;;4797565;29;20055;-74
2023/06/29 00:13:56;;;;;;;7.20;1.50;;;;;;;;;;4798198;29;20388;-74
2023/06/29 00:16:26;;;;;;;6.72;1.35;;;;;;;;;;4798161;29;20495;-73
2023/06/29 00:19:00;;;;;;;3.85;1.00;;;;;;;;;;4798078;29;20110;-74
2023/06/29 00:21:31;;;;;;;3.85;1.05;;;;;;;;;;4798228;29;20055;-74
2023/06/29 00:24:02;;;;;;;10.57;1.30;;;;;;;;;;4797783;29;20055;-74
2023/06/29 00:26:34;;;;;;;15.85;1.80;;;;;;;;;;4797822;29;20050;-74
2023/06/29 00:29:06;;;;;;;12.55;1.27;;;;;;;;;;4797939;29;20055;-74
2023/06/29 00:31:38;;;;;;;7.03;1.15;;;;;;;;;;4797856;29;20066;-74
2023/06/29 00:34:08;;;;;;;9.35;1.17;;;;;;;;;;4781433;29;20055;-74
2023/06/29 00:36:38;;;;;;;8.13;1.25;;;;;;;;;;4795662;29;20059;-74
2023/06/29 00:39:09;;;;;;;9.10;1.30;;;;;;;;;;4793779;29;20055;-73
2023/06/29 00:41:39;;;;;;;12.77;1.50;;;;;;;;;;4793919;29;20515;-73
2023/06/29 00:44:09;;;;;;;2.50;1.15;;;;;;;;;;4797095;29;20055;-73
2023/06/29 00:46:39;;;;;;;12.60;1.40;;;;;;;;;;4800166;29;20695;-73
2023/06/29 00:49:12;;;;;;;6.10;1.10;;;;;;;;;;4800198;29;20058;-73
2023/06/29 00:51:46;;;;;;;5.32;1.48;;;;;;;;;;4799758;29;20530;-73
2023/06/29 00:54:19;;;;;;;6.80;1.70;;;;;;;;;;4801485;29;20415;-74
2023/06/29 00:56:49;;;;;;;4.93;1.65;;;;;;;;;;4800683;29;20054;-74
2023/06/29 00:59:21;;;;;;;6.43;2.35;;;;;;;;;;4799656;29;20431;-74
2023/06/29 01:01:52;;;;;;;9.23;1.85;;;;;;;;;;4800775;29;20054;-74
2023/06/29 01:04:27;;;;;;;10.40;1.70;;;;;;;;;;4800934;29;20063;-73
2023/06/29 01:07:33;;;;;;;7.30;1.55;;;;;;;;;;4800739;29;20059;-74
2023/06/29 01:10:10;;;;;;;5.53;1.90;;;;;;;;;;4800891;29;20054;-74
2023/06/29 01:12:41;;;;;;;12.18;1.90;;;;;;;;;;4800844;29;20047;-74
2023/06/29 01:15:13;;;;;;;8.90;1.30;;;;;;;;;;4799000;29;20055;-73
2023/06/29 01:17:47;;;;;;;7.32;1.95;;;;;;;;;;4798776;29;20066;-73
2023/06/29 01:20:27;;;;;;;5.85;1.30;;;;;;;;;;4800307;29;20068;-73
2023/06/29 01:23:11;;;;;;;10.07;1.35;;;;;;;;;;4800628;29;20050;-73
2023/06/29 01:25:45;;;;;;;8.52;1.70;;;;;;;;;;4798850;29;20511;-73
2023/06/29 01:28:16;;;;;;;9.68;1.63;;;;;;;;;;4800987;29;20468;-74
2023/06/29 01:30:50;;;;;;;9.73;1.60;;;;;;;;;;4800316;29;20057;-73
2023/06/29 01:33:23;;;;;;;8.25;1.98;;;;;;;;;;4798672;29;20054;-73
2023/06/29 01:36:26;;;;;;;6.68;1.92;;;;;;;;;;4800027;29;21022;-74
2023/06/29 01:39:06;;;;;;;10.60;1.73;;;;;;;;;;4777920;29;20081;-73
2023/06/29 01:41:42;;;;;;;7.60;1.30;;;;;;;;;;4799969;29;20051;-74
2023/06/29 01:44:16;;;;;;;9.05;1.50;;;;;;;;;;4800554;29;20055;-73
2023/06/29 01:46:48;;;;;;;9.15;1.30;;;;;;;;;;4800410;29;20059;-73
2023/06/29 01:49:21;;;;;;;8.70;1.73;;;;;;;;;;4800067;29;20047;-74
2023/06/29 01:51:52;;;;;;;12.30;1.70;;;;;;;;;;4799587;29;20062;-74
2023/06/29 01:54:23;;;;;;;6.03;1.13;;;;;;;;;;4799633;29;20419;-73
2023/06/29 01:56:54;;;;;;;13.15;1.33;;;;;;;;;;4800197;29;20059;-73
2023/06/29 01:59:24;;;;;;;5.88;1.20;;;;;;;;;;4798940;29;20431;-74
2023/06/29 02:01:54;;;;;;;5.70;1.70;;;;;;;;;;4800339;29;20054;-75
2023/06/29 02:04:25;;;;;;;8.50;1.58;;;;;;;;;;4799611;29;20051;-74
2023/06/29 02:06:56;;;;;;;8.02;1.38;;;;;;;;;;4798102;29;20051;-74
2023/06/29 02:09:26;;;;;;;3.53;1.25;;;;;;;;;;4799518;29;20519;-75
2023/06/29 02:11:57;;;;;;;7.13;1.67;;;;;;;;;;4798433;29;20117;-74
2023/06/29 02:14:30;;;;;;;2.92;1.27;;;;;;;;;;4799655;29;20063;-75
2023/06/29 02:17:01;;;;;;;5.47;1.42;;;;;;;;;;4797646;29;20055;-74
2023/06/29 02:19:32;;;;;;;5.85;1.38;;;;;;;;;;4798068;29;20051;-74
2023/06/29 02:22:02;;;;;;;6.70;1.23;;;;;;;;;;4797510;29;20069;-74
2023/06/29 02:24:34;;;;;;;8.20;1.10;;;;;;;;;;4799093;29;20058;-74
2023/06/29 02:27:06;;;;;;;15.38;1.45;;;;;;;;;;4797632;29;20066;-75
2023/06/29 02:29:36;;;;;;;8.43;1.33;;;;;;;;;;4797463;29;20066;-74
2023/06/29 02:32:05;;;;;;;;;;;;;;;;;;4798738;29;20499;-75
2023/06/29 02:34:36;;;;;;;5.28;1.20;;;;;;;;;;4799859;29;19937;-74
2023/06/29 02:37:07;;;;;;;8.52;1.10;;;;;;;;;;4799159;29;20057;-75
2023/06/29 02:39:40;;;;;;;3.47;1.10;;;;;;;;;;4799886;29;21092;-75
2023/06/29 02:42:11;;;;;;;4.35;1.20;;;;;;;;;;4767408;29;20067;-74
2023/06/29 02:44:42;;;;;;;4.20;1.00;;;;;;;;;;4797589;29;20047;-75
2023/06/29 02:47:13;;;;;;;4.50;1.15;;;;;;;;;;4797653;29;20058;-74
2023/06/29 02:49:43;;;;;;;5.53;1.45;;;;;;;;;;4797662;29;20058;-74
2023/06/29 02:52:16;;;;;;;7.47;1.20;;;;;;;;;;4797389;29;20070;-74
2023/06/29 02:54:47;;;;;;;11.13;1.38;;;;;;;;;;4796968;29;20435;-75
2023/06/29 02:57:19;;;;;;;7.72;1.30;;;;;;;;;;4798955;29;20403;-74
2023/06/29 02:59:51;;;;;;;9.30;1.30;;;;;;;;;;4797439;29;20046;-74
2023/06/29 03:02:22;;;;;;;7.32;1.38;;;;;;;;;;4798416;29;20105;-74
2023/06/29 03:04:52;;;;;;;6.97;1.23;;;;;;;;;;4798642;29;20077;-74
2023/06/29 03:07:23;;;;;;;8.07;1.30;;;;;;;;;;4782082;29;20077;-74
2023/06/29 03:09:54;;;;;;;7.30;1.20;;;;;;;;;;4798881;29;20059;-74
2023/06/29 03:12:24;;;;;;;12.88;1.50;;;;;;;;;;4798625;29;20511;-74
2023/06/29 03:14:55;;;;;;;2.47;1.10;;;;;;;;;;4798658;29;20062;-74
2023/06/29 03:17:27;;;;;;;4.55;1.10;;;;;;;;;;4798534;29;20419;-75
2023/06/29 03:19:58;;;;;;;7.00;1.13;;;;;;;;;;4798720;29;20055;-75
2023/06/29 03:22:29;;;;;;;7.15;1.40;;;;;;;;;;4798506;29;20984;-75
2023/06/29 03:24:58;;;;;;;;;;;;;;;;;;4783199;29;20068;-74
2023/06/29 03:27:28;;;;;;;7.20;1.42;;;;;;;;;;4780383;30;20401;-75
2023/06/29 03:30:00;;;;;;;2.13;1.00;;;;;;;;;;4780581;30;20055;-74
2023/06/29 03:32:31;;;;;;;4.72;1.23;;;;;;;;;;4780325;30;20055;-74
2023/06/29 03:35:08;;;;;;;6.82;1.50;;;;;;;;;;4780552;30;20055;-74
2023/06/29 03:37:38;;;;;;;9.70;1.40;;;;;;;;;;4780589;30;20055;-74
2023/06/29 03:40:09;;;;;;;6.25;1.30;;;;;;;;;;4780793;30;20058;-74
2023/06/29 03:42:41;;;;;;;4.00;1.33;;;;;;;;;;4780087;30;20059;-74
2023/06/29 03:45:14;;;;;;;7.65;1.10;;;;;;;;;;4779665;30;20527;-74
2023/06/29 03:47:44;;;;;;;2.63;0.93;;;;;;;;;;4780119;30;20047;-75
2023/06/29 03:50:14;;;;;;;4.75;1.10;;;;;;;;;;4780278;30;20081;-75
2023/06/29 03:52:44;;;;;;;8.48;1.25;;;;;;;;;;4780369;30;20051;-75
2023/06/29 03:55:17;;;;;;;2.85;0.75;;;;;;;;;;4779907;30;20436;-75
2023/06/29 03:57:48;;;;;;;2.97;1.08;;;;;;;;;;4780402;30;20059;-74
2023/06/29 04:00:19;;;;;;;9.45;1.50;;;;;;;;;;4778620;30;20454;-75
2023/06/29 04:02:51;;;;;;;4.63;1.00;;;;;;;;;;4779372;30;20059;-74
2023/06/29 04:05:23;;;;;;;6.35;1.13;;;;;;;;;;4778768;30;20522;-75
2023/06/29 04:07:53;;;;;;;5.80;1.25;;;;;;;;;;4779874;30;20067;-75
2023/06/29 04:10:24;;;;;;;4.03;0.93;;;;;;;;;;4780179;30;20399;-74
2023/06/29 04:12:54;;;;;;;5.32;1.00;;;;;;;;;;4778963;30;20055;-74
2023/06/29 04:15:25;;;;;;;6.18;1.02;;;;;;;;;;4782777;29;20055;-74
2023/06/29 04:17:56;;;;;;;1.65;0.77;;;;;;;;;;4783322;30;20058;-74
2023/06/29 04:20:28;;;;;;;3.30;1.10;;;;;;;;;;4783178;30;20058;-75
2023/06/29 04:22:59;;;;;;;6.68;1.15;;;;;;;;;;4784871;29;20063;-74
2023/06/29 04:25:29;;;;;;;2.10;0.85;;;;;;;;;;4801750;29;20054;-74
2023/06/29 04:27:59;;;;;;;7.70;1.10;;;;;;;;;;4801859;29;20054;-74
2023/06/29 04:30:30;;;;;;;3.25;0.93;;;;;;;;;;4801515;29;20058;-74
2023/06/29 04:33:09;;;;;;;3.78;1.08;;;;;;;;;;4801225;29;20074;-74
2023/06/29 04:35:40;;;;;;;3.38;1.30;;;;;;;;;;4801409;29;20075;-74
2023/06/29 04:38:17;;;;;;;5.50;1.02;;;;;;;;;;4801360;29;20054;-74
2023/06/29 04:40:48;;;;;;;4.68;0.88;;;;;;;;;;4801324;29;20046;-75
2023/06/29 04:43:18;;;;;;;5.03;0.90;;;;;;;;;;4800907;29;20435;-74
2023/06/29 04:45:48;;;;;;;3.42;0.82;;;;;;;;;;4801251;29;20065;-74
2023/06/29 04:48:19;;;;;;;;;;;;;;;;;;4801272;29;20058;-74
2023/06/29 04:50:49;;;;;;;7.72;1.23;;;;;;;;;;4800986;29;19936;-74
2023/06/29 04:53:19;;;;;;;4.13;0.98;;;;;;;;;;4800717;29;20047;-75
2023/06/29 04:55:50;;;;;;;1.75;0.80;;;;;;;;;;4800851;29;20062;-76
2023/06/29 04:58:20;;;;;;;;;;;;;;;;;;4801025;29;20062;-74
2023/06/29 05:00:50;;;;;;;2.65;1.02;;;;;;;;;;4801094;29;19929;-74
2023/06/29 05:03:21;;;;;;;2.33;1.08;;;;;;;;;;4800780;29;20054;-74
2023/06/29 05:05:52;;;;;;;3.60;0.95;;;;;;;;;;4800511;29;20081;-75
2023/06/29 05:08:21;;;;;;;;;;;;;;;;;;4801261;29;20054;-74
2023/06/29 05:10:51;;;;;;;1.17;0.65;;;;;;;;;;4800742;29;19925;-74
2023/06/29 05:13:22;;;;;;;5.35;0.90;;;;;;;;;;4800884;29;20055;-74
2023/06/29 05:15:53;;;;;;;8.07;0.85;;;;;;;;;;4799399;29;20066;-75
2023/06/29 05:18:24;;;;;;;9.88;0.90;;;;;;;;;;4800852;29;20542;-73
2023/06/29 05:20:57;;;;;;;3.30;1.10;;;;;;;;;;4800776;29;20499;-74
2023/06/29 05:23:28;;;;;;;8.18;1.00;;;;;;;;;;4800297;29;20059;-74
2023/06/29 05:25:59;;;;;;;5.13;1.00;;;;;;;;;;4799484;29;20519;-74
2023/06/29 05:28:30;;;;;;;3.22;0.73;;;;;;;;;;4800735;29;20054;-74
2023/06/29 05:31:01;;;;;;;2.45;0.68;;;;;;;;;;4800551;29;20534;-74
2023/06/29 05:33:31;;;;;;;6.00;0.88;;;;;;;;;;4800795;29;20055;-75
2023/06/29 05:36:02;;;;;;;2.72;1.00;;;;;;;;;;4800193;29;20046;-74
2023/06/29 05:38:32;;;;;;;1.77;0.90;;;;;;;;;;4800279;29;20050;-74
2023/06/29 05:41:02;;;;;;;1.42;0.75;;;;;;;;;;4800439;29;20502;-74
2023/06/29 05:43:34;;;;;;;4.68;0.90;;;;;;;;;;4799728;29;20057;-74
2023/06/29 05:46:06;;;;;;;4.18;0.60;;;;;;;;;;4800407;29;20053;-75
2023/06/29 05:48:37;;;;;;;0.47;0.47;;;;;;;;;;4800399;29;20062;-74
2023/06/29 05:51:08;;;;;;;0.73;0.40;;;;;;;;;;4799300;29;20883;-75
2023/06/29 05:53:38;;;;;;;1.25;0.63;;;;;;;;;;4798655;29;20066;-74
2023/06/29 05:56:09;;;;;;;0.60;0.60;;;;;;;;;;4800073;29;20059;-75
2023/06/29 05:58:39;;;;;;;1.98;0.70;;;;;;;;;;4800288;29;20066;-74
2023/06/29 06:01:09;;;;;;;3.92;0.50;;;;;;;;;;4800057;29;20058;-74
2023/06/29 06:03:40;;;;;;;4.95;0.80;;;;;;;;;;4783928;29;20043;-74
2023/06/29 06:06:10;;;;;;;2.30;0.85;;;;;;;;;;4799931;29;20047;-74
2023/06/29 06:08:41;;;;;;;1.08;0.65;;;;;;;;;;4800022;29;20047;-74
2023/06/29 06:11:12;;;;;;;4.80;0.80;;;;;;;;;;4799864;29;20039;-74
2023/06/29 06:13:41;;;;;;;;;;;;;;;;;;4800361;29;20507;-75
2023/06/29 06:16:12;;;;;;;2.08;0.82;;;;;;;;;;4799501;29;19932;-74
2023/06/29 06:18:43;;;;;;;4.03;0.75;;;;;;;;;;4799263;29;20059;-74
2023/06/29 06:21:15;;;;;;;1.52;0.47;;;;;;;;;;4799321;29;20065;-75
2023/06/29 06:23:46;;;;;;;5.38;0.88;;;;;;;;;;4799162;29;20065;-74
2023/06/29 06:26:16;;;;;;;1.98;0.93;;;;;;;;;;4799834;29;20058;-74
2023/06/29 06:28:47;;;;;;;2.55;1.05;;;;;;;;;;4799156;29;20060;-74
2023/06/29 06:31:17;;;;;;;7.18;0.73;;;;;;;;;;4798942;29;20565;-74
2023/06/29 06:34:02;;;;;;;1.67;0.60;;;;;;;;;;4799240;29;20058;-74
2023/06/29 06:36:32;;;;;;;1.50;0.55;;;;;;;;;;4799500;29;20522;-74
2023/06/29 06:39:03;;;;;;;0.88;0.55;;;;;;;;;;4799559;29;20515;-74
2023/06/29 06:41:34;;;;;;;0.85;0.55;;;;;;;;;;4797972;29;20051;-73
2023/06/29 06:44:07;;;;;;;1.80;0.45;;;;;;;;;;4797853;29;20633;-74
2023/06/29 06:46:37;;;;;;;3.78;0.60;;;;;;;;;;4799270;29;20507;-75
2023/06/29 06:49:08;;;;;;;1.38;0.60;;;;;;;;;;4798979;29;20093;-75
2023/06/29 06:51:39;;;;;;;2.55;0.70;;;;;;;;;;4798839;29;20062;-75
2023/06/29 06:54:09;;;;;;;1.27;0.50;;;;;;;;;;4799208;29;20472;-75
2023/06/29 06:56:39;;;;;;;0.90;0.50;;;;;;;;;;4798823;29;20055;-75
2023/06/29 06:59:09;;;;;;;;;;;;;;;;;;4799638;29;20066;-75
2023/06/29 07:01:43;;;;;;;0.93;0.43;;;;;;;;;;4797298;29;19954;-75
2023/06/29 07:04:14;;;;;;;2.20;0.70;;;;;;;;;;4798330;29;20062;-75
2023/06/29 07:06:46;;;;;;;2.05;0.70;;;;;;;;;;4798548;29;20043;-74
2023/06/29 07:09:16;;;;;;;4.68;0.73;;;;;;;;;;4799017;29;20039;-75
2023/06/29 07:11:47;;;;;;;0.70;0.50;;;;;;;;;;4798830;29;20057;-75
2023/06/29 07:14:21;;;;;;;3.60;0.57;;;;;;;;;;4799283;29;20507;-74
2023/06/29 07:16:52;;;;;;;1.48;0.52;;;;;;;;;;4798936;29;20050;-74
2023/06/29 07:19:22;;;;;;;3.58;0.63;;;;;;;;;;4797221;29;20420;-74
2023/06/29 07:21:58;;;;;;;3.03;0.70;;;;;;;;;;4797949;29;20050;-75
2023/06/29 07:24:31;;;;;;;6.03;0.73;;;;;;;;;;4798024;29;20062;-75
2023/06/29 07:27:01;;;;;;;4.15;0.93;;;;;;;;;;4798143;29;20069;-74
2023/06/29 07:29:33;;;;;;;2.10;0.60;;;;;;;;;;4798586;29;20507;-75
2023/06/29 07:32:04;;;;;;;1.23;0.50;;;;;;;;;;4798327;29;20141;-74
2023/06/29 07:34:35;;;;;;;0.52;0.40;;;;;;;;;;4798773;29;20047;-74
2023/06/29 07:37:07;;;;;;;2.97;1.10;;;;;;;;;;4798357;29;20533;-74
2023/06/29 07:39:37;;;;;;;0.93;0.55;;;;;;;;;;4798136;29;20066;-75
2023/06/29 07:42:07;;;;;;;;;;;;;;;;;;4798648;29;20051;-75
2023/06/29 07:44:38;;;;;;;1.75;0.32;;;;;;;;;;4798727;29;20390;-74
2023/06/29 07:47:09;;;;;;;1.38;0.45;;;;;;;;;;4798166;29;20055;-75
2023/06/29 07:49:39;;;;;;;5.45;0.60;;;;;;;;;;4798697;29;20063;-76
2023/06/29 07:52:10;;;;;;;2.95;0.57;;;;;;;;;;4798225;29;20047;-74
2023/06/29 07:54:40;;;;;;;3.63;0.40;;;;;;;;;;4797602;29;20059;-75
2023/06/29 07:57:11;;;;;;;0.73;0.47;;;;;;;;;;4798012;29;20055;-74
2023/06/29 07:59:43;;;;;;;0.90;0.40;;;;;;;;;;4798417;29;20058;-74
2023/06/29 08:02:14;;;;;;;;;;;;;;;;;;4798788;29;20050;-74
2023/06/29 08:04:45;;;;;;;4.57;0.57;;;;;;;;;;4798206;29;19936;-74
2023/06/29 08:07:18;;;;;;;2.15;0.90;;;;;;;;;;4797676;29;20085;-75
2023/06/29 08:09:50;;;;;;;2.03;0.43;;;;;;;;;;4798674;29;20070;-75
2023/06/29 08:12:21;;;;;;;4.68;0.43;;;;;;;;;;4798029;29;20415;-75
2023/06/29 08:14:53;;;;;;;0.82;0.50;;;;;;;;;;4797998;29;20066;-75
2023/06/29 08:17:23;;;;;;;1.65;0.40;;;;;;;;;;4798016;29;20531;-74
2023/06/29 08:19:53;;;;;;;1.35;0.60;;;;;;;;;;4797822;29;20047;-75
2023/06/29 08:22:27;;;;;;;2.67;0.57;;;;;;;;;;4798276;29;20408;-75
2023/06/29 08:25:00;;;;;;;0.57;0.47;;;;;;;;;;4797715;29;20451;-76
2023/06/29 08:27:31;;;;;;;0.90;0.60;;;;;;;;;;4798398;29;20385;-75
2023/06/29 08:30:01;;;;;;;2.65;0.55;;;;;;;;;;4797589;29;20435;-75
2023/06/29 08:32:32;;;;;;;0.82;0.68;;;;;;;;;;4798155;29;20054;-74
2023/06/29 08:35:02;;;;;;;;;;;;;;;;;;4798290;29;20054;-74
2023/06/29 08:37:33;;;;;;;1.58;0.47;;;;;;;;;;4798160;29;20274;-75
2023/06/29 08:40:06;;;;;;;2.05;0.68;;;;;;;;;;4797962;29;20436;-75
2023/06/29 08:42:39;;;;;;;1.17;0.63;;;;;;;;;;4797540;29;20617;-75
2023/06/29 08:45:10;;;;;;;1.35;0.95;;;;;;;;;;4797756;29;20062;-74
2023/06/29 08:47:44;;;;;;;1.67;0.95;;;;;;;;;;4797507;29;20070;-73
2023/06/29 08:50:15;;;;;;;1.13;0.52;;;;;;;;;;4797516;29;20057;-76
2023/06/29 08:52:46;;;;;;;0.70;0.40;;;;;;;;;;4797565;29;20046;-75
2023/06/29 08:55:17;;;;;;;2.65;0.50;;;;;;;;;;4797690;29;20051;-75
2023/06/29 08:57:48;;;;;;;0.85;0.68;;;;;;;;;;4797439;29;20047;-75
2023/06/29 09:00:19;;;;;;;6.60;0.70;;;;;;;;;;4797951;29;20534;-74
2023/06/29 09:02:53;;;;;;;1.25;0.70;;;;;;;;;;4800528;29;20055;-74
2023/06/29 09:05:25;;;;;;;2.72;0.82;;;;;;;;;;4801132;29;20055;-75
2023/06/29 09:07:57;;;;;;;2.15;0.70;;;;;;;;;;4800673;29;20062;-76
2023/06/29 09:10:28;;;;;;;1.50;1.13;;;;;;;;;;4801128;29;20054;-75
2023/06/29 09:12:59;;;;;;;3.22;0.75;;;;;;;;;;4800720;29;20067;-75
2023/06/29 09:15:30;;;;;;;4.95;0.90;;;;;;;;;;4800734;29;20529;-75
2023/06/29 09:18:02;;;;;;;2.55;0.95;;;;;;;;;;4800290;29;20515;-75
2023/06/29 09:20:36;;;;;;;5.20;0.82;;;;;;;;;;4800730;29;20518;-74
2023/06/29 09:23:07;;;;;;;0.77;0.70;;;;;;;;;;4800601;29;20081;-74
2023/06/29 09:25:39;;;;;;;4.72;1.25;;;;;;;;;;4800709;29;20046;-74
2023/06/29 09:28:12;;;;;;;2.17;1.00;;;;;;;;;;4800509;29;20174;-75
2023/06/29 09:30:42;;;;;;;1.95;0.82;;;;;;;;;;4798552;29;20055;-75
2023/06/29 09:33:15;;;;;;;3.40;0.77;;;;;;;;;;4799023;29;20521;-74
2023/06/29 09:35:53;;;;;;;0.93;0.50;;;;;;;;;;4800495;29;20050;-74
2023/06/29 09:38:23;;;;;;;2.35;0.80;;;;;;;;;;4800287;29;20047;-73
2023/06/29 09:40:55;;;;;;;1.02;0.65;;;;;;;;;;4800661;29;20062;-73
2023/06/29 09:43:29;;;;;;;1.75;0.70;;;;;;;;;;4799305;29;20054;-74
2023/06/29 09:46:08;;;;;;;1.92;0.40;;;;;;;;;;4799774;29;20058;-74
2023/06/29 09:48:50;;;;;;;1.15;0.50;;;;;;;;;;4800365;29;20051;-76
2023/06/29 09:51:24;;;;;;;2.13;0.85;;;;;;;;;;4800136;29;20055;-74
2023/06/29 09:53:54;;;;;;;0.98;0.70;;;;;;;;;;4799893;29;20046;-75
2023/06/29 09:56:26;;;;;;;1.40;1.10;;;;;;;;;;4800513;29;20062;-74
2023/06/29 09:58:57;;;;;;;3.22;0.80;;;;;;;;;;4801042;29;20062;-78
2023/06/29 10:01:28;;;;;;;4.70;1.05;;;;;;;;;;4799548;29;20062;-75
2023/06/29 10:03:58;;;;;;;1.35;0.95;;;;;;;;;;4798141;29;20054;-76
2023/06/29 10:06:51;;;;;;;1.63;0.85;;;;;;;;;;4783496;29;20435;-76
2023/06/29 10:09:23;;;;;;;1.67;1.20;;;;;;;;;;4800238;29;20059;-74
2023/06/29 10:11:55;;;;;;;2.30;1.00;;;;;;;;;;4799815;29;20051;-74
2023/06/29 10:14:26;;;;;;;2.78;1.17;;;;;;;;;;4800409;29;20074;-76
2023/06/29 10:16:58;;;;;;;1.67;1.05;;;;;;;;;;4799885;29;20051;-76
2023/06/29 10:19:30;;;;;;;5.00;1.45;;;;;;;;;;4800023;29;20058;-74
2023/06/29 10:22:15;;;;;;;3.03;1.40;;;;;;;;;;4800723;29;20058;-74
2023/06/29 10:24:53;;;;;;;2.83;1.40;;;;;;;;;;4817370;29;20074;-75
2023/06/29 10:27:29;;;;;;;1.92;1.00;;;;;;;;;;4801682;29;20054;-75
2023/06/29 10:30:05;;;;;;;4.25;1.40;;;;;;;;;;4802019;29;20050;-75
2023/06/29 10:32:37;;;;;;;5.78;1.70;;;;;;;;;;4818059;29;20054;-74
2023/06/29 10:35:09;;;;;;;5.38;1.27;;;;;;;;;;4817362;29;20461;-73
2023/06/29 10:37:46;;;;;;;1.52;0.80;;;;;;;;;;4817300;29;20054;-75
2023/06/29 10:40:20;;;;;;;4.15;1.40;;;;;;;;;;4817565;29;20434;-75
2023/06/29 10:42:55;;;;;;;5.97;1.30;;;;;;;;;;4817100;29;20038;-74
2023/06/29 10:45:26;;;;;;;2.38;1.08;;;;;;;;;;4826318;29;20038;-75
2023/06/29 10:47:56;;;;;;;4.38;1.25;;;;;;;;;;4830525;29;20360;-75
2023/06/29 10:50:32;;;;;;;3.65;1.48;;;;;;;;;;4835776;29;20054;-74
2023/06/29 10:53:08;;;;;;;1.77;0.90;;;;;;;;;;4818699;29;20057;-75
2023/06/29 10:55:41;;;;;;;;;;;;;;;;;;4836129;29;20061;-75
2023/06/29 10:58:20;;;;;;;3.40;1.00;;;;;;;;;;4835074;29;19939;-75
2023/06/29 11:00:54;;;;;;;5.93;1.23;;;;;;;;;;4835740;29;20054;-75
2023/06/29 11:03:24;;;;;;;3.70;0.90;;;;;;;;;;4835107;29;20045;-75
2023/06/29 11:05:56;;;;;;;8.57;1.85;;;;;;;;;;4835144;29;20068;-75
2023/06/29 11:08:27;;;;;;;6.20;1.60;;;;;;;;;;4834689;29;20064;-75
2023/06/29 11:11:15;;;;;;;3.35;1.17;;;;;;;;;;4819001;29;20395;-74
2023/06/29 11:13:46;;;;;;;;;;;;;;;;;;4835436;29;20053;-74
2023/06/29 11:16:16;;;;;;;17.45;3.08;;;;;;;;;;4834647;29;20723;-75
2023/06/29 11:18:50;;;;;;;5.22;1.63;;;;;;;;;;4834748;29;20053;-73
2023/06/29 11:21:21;;;;;;;3.10;1.83;;;;;;;;;;4834572;29;20086;-75
2023/06/29 11:23:51;;;;;;;3.88;1.45;;;;;;;;;;4834212;29;20057;-74
2023/06/29 11:26:23;;;;;;;5.50;2.70;;;;;;;;;;4834838;29;20431;-75
2023/06/29 11:28:54;;;;;;;10.98;4.60;;;;;;;;;;4835073;29;20058;-74
2023/06/29 11:31:25;;;;;;;10.82;4.03;;;;;;;;;;4834516;29;20053;-77
2023/06/29 11:33:57;;;;;;;6.53;2.20;;;;;;;;;;4834849;29;20050;-75
2023/06/29 11:36:33;;;;;;;5.63;1.88;;;;;;;;;;4834907;29;20050;-75
2023/06/29 11:39:04;;;;;;;9.32;2.38;;;;;;;;;;4819306;29;20560;-75
2023/06/29 11:41:36;;;;;;;27.90;3.67;;;;;;;;;;4834770;29;20615;-76
2023/06/29 11:44:08;;;;;;;9.30;1.77;;;;;;;;;;4834340;29;20046;-75
2023/06/29 11:46:45;;;;;;;5.85;1.60;;;;;;;;;;4834658;29;20065;-79
2023/06/29 11:49:27;;;;;;;9.18;4.88;;;;;;;;;;4834660;29;20062;-75
2023/06/29 11:51:59;;;;;;;5.97;1.90;;;;;;;;;;4834461;29;20058;-75
2023/06/29 11:54:32;;;;;;;12.77;4.50;;;;;;;;;;4834732;29;20054;-76
2023/06/29 11:57:04;;;;;;;6.53;3.20;;;;;;;;;;4834695;29;20513;-74
2023/06/29 11:59:39;;;;;;;9.23;5.35;;;;;;;;;;4834391;29;20057;-78
2023/06/29 12:02:11;;;;;;;15.27;3.80;;;;;;;;;;4834053;29;20050;-74
2023/06/29 12:04:57;;;;;;;7.03;2.20;;;;;;;;;;4834091;29;20061;-76
2023/06/29 12:07:44;;;;;;;8.15;2.33;;;;;;;;;;4834330;29;20549;-75
2023/06/29 12:10:24;;;;;;;4.93;1.30;;;;;;;;;;4834807;29;20445;-75
2023/06/29 12:12:56;;;;;;;4.68;1.48;;;;;;;;;;4834256;29;20052;-75
2023/06/29 12:15:27;;;;;;;5.32;1.65;;;;;;;;;;4834316;29;20041;-75
2023/06/29 12:18:10;;;;;;;8.35;1.70;;;;;;;;;;4834137;29;20054;-74
2023/06/29 12:20:45;;;;;;;4.97;1.90;;;;;;;;;;4834427;29;20054;-75
2023/06/29 12:23:17;;;;;;;5.10;1.50;;;;;;;;;;4831120;29;20051;-75
2023/06/29 12:25:50;;;;;;;17.05;3.38;;;;;;;;;;4815694;29;20059;-75
2023/06/29 12:28:21;;;;;;;5.70;1.60;;;;;;;;;;4799538;29;20570;-75
2023/06/29 12:30:51;;;;;;;5.38;1.70;;;;;;;;;;4815861;29;20062;-75
2023/06/29 12:33:22;;;;;;;12.23;2.20;;;;;;;;;;4799339;29;20069;-75
2023/06/29 12:35:54;;;;;;;20.92;3.05;;;;;;;;;;4817413;29;20057;-75
2023/06/29 12:38:24;;;;;;;5.10;1.52;;;;;;;;;;4819344;29;20053;-75
2023/06/29 12:40:54;;;;;;;3.28;1.95;;;;;;;;;;4819577;29;20050;-76
2023/06/29 12:43:24;;;;;;;6.25;1.73;;;;;;;;;;4803337;29;20070;-75
2023/06/29 12:45:55;;;;;;;11.23;2.28;;;;;;;;;;4819258;29;20058;-76
2023/06/29 12:48:26;;;;;;;10.63;1.88;;;;;;;;;;4819469;29;20062;-76
2023/06/29 12:50:59;;;;;;;3.33;1.63;;;;;;;;;;4819174;29;20061;-75
2023/06/29 12:53:32;;;;;;;4.45;1.73;;;;;;;;;;4819262;29;20383;-76
2023/06/29 12:56:02;;;;;;;4.25;0.98;;;;;;;;;;4803297;29;20058;-75
2023/06/29 12:58:34;;;;;;;4.45;1.20;;;;;;;;;;4818716;29;20062;-75
2023/06/29 13:01:05;;;;;;;3.03;1.13;;;;;;;;;;4818692;29;20047;-75
2023/06/29 13:03:35;;;;;;;2.28;0.80;;;;;;;;;;4818965;29;20062;-75
2023/06/29 13:06:05;;;;;;;5.03;0.88;;;;;;;;;;4818891;29;20050;-75
2023/06/29 13:08:37;;;;;;;5.70;1.52;;;;;;;;;;4818726;29;20081;-75
2023/06/29 13:11:08;;;;;;;1.88;0.93;;;;;;;;;;4818939;29;20125;-75
2023/06/29 13:13:39;;;;;;;5.30;1.02;;;;;;;;;;4818972;29;20062;-76
2023/06/29 13:16:09;;;;;;;2.45;1.10;;;;;;;;;;4818910;29;20061;-75
2023/06/29 13:18:39;;;;;;;2.05;0.73;;;;;;;;;;4819016;29;20069;-75
2023/06/29 13:21:10;;;;;;;4.10;0.80;;;;;;;;;;4818403;29;20050;-75
2023/06/29 13:23:41;;;;;;;2.15;0.70;;;;;;;;;;4824752;29;20065;-76
2023/06/29 13:26:12;;;;;;;3.50;0.93;;;;;;;;;;4836784;29;20064;-75
2023/06/29 13:28:42;;;;;;;2.78;1.05;;;;;;;;;;4836971;29;20057;-76
2023/06/29 13:31:13;;;;;;;4.00;0.65;;;;;;;;;;4836455;29;20060;-76
2023/06/29 13:33:43;;;;;;;1.33;0.77;;;;;;;;;;4837049;29;20045;-75
2023/06/29 13:36:13;;;;;;;1.80;0.45;;;;;;;;;;4836520;29;20060;-76
2023/06/29 13:38:44;;;;;;;2.22;0.30;;;;;;;;;;4836271;29;20045;-76
2023/06/29 13:41:15;;;;;;;6.13;0.98;;;;;;;;;;4836950;29;20058;-75
2023/06/29 13:43:48;;;;;;;5.38;0.50;;;;;;;;;;4819869;29;20398;-76
2023/06/29 13:46:18;;;;;;;1.55;0.50;;;;;;;;;;4836390;29;20425;-76
2023/06/29 13:48:48;;;;;;;0.60;0.60;;;;;;;;;;4836392;29;20058;-77
2023/06/29 13:51:21;;;;;;;0.73;0.50;;;;;;;;;;4836272;29;20053;-75
2023/06/29 13:53:52;;;;;;;0.85;0.47;;;;;;;;;;4836516;29;20050;-74
2023/06/29 13:56:24;;;;;;;0.95;0.32;;;;;;;;;;4836786;29;20709;-76
2023/06/29 13:58:55;;;;;;;1.73;0.50;;;;;;;;;;4836514;29;20057;-75
2023/06/29 14:01:25;;;;;;;0.93;0.40;;;;;;;;;;4836225;29;20053;-77
2023/06/29 14:03:59;;;;;;;0.70;0.40;;;;;;;;;;4836820;29;20402;-75
2023/06/29 14:06:32;;;;;;;1.35;0.32;;;;;;;;;;4836469;29;20514;-74
2023/06/29 14:09:04;;;;;;;3.35;0.50;;;;;;;;;;4835872;29;20054;-75
2023/06/29 14:11:35;;;;;;;1.10;0.70;;;;;;;;;;4835305;29;20077;-77
2023/06/29 14:14:06;;;;;;;0.90;0.30;;;;;;;;;;4835581;29;20073;-75
2023/06/29 14:16:36;;;;;;;4.53;0.70;;;;;;;;;;4836020;29;20447;-75
2023/06/29 14:19:07;;;;;;;1.95;0.40;;;;;;;;;;4836211;29;20057;-75
2023/06/29 14:21:37;;;;;;;0.40;0.30;;;;;;;;;;4836394;29;20049;-76
2023/06/29 14:24:07;;;;;;;2.53;0.60;;;;;;;;;;4835992;29;20057;-75
2023/06/29 14:26:38;;;;;;;3.63;0.40;;;;;;;;;;4835623;29;20057;-75
2023/06/29 14:29:08;;;;;;;0.85;0.55;;;;;;;;;;4836059;29;20050;-76
2023/06/29 14:31:38;;;;;;;0.90;0.45;;;;;;;;;;4835851;29;20046;-78
2023/06/29 14:34:09;;;;;;;1.05;0.43;;;;;;;;;;4836019;29;20506;-75
2023/06/29 14:36:40;;;;;;;4.95;1.00;;;;;;;;;;4835944;29;20061;-75
2023/06/29 14:39:10;;;;;;;0.63;0.50;;;;;;;;;;4836320;29;20418;-74
2023/06/29 14:41:56;;;;;;;1.35;0.70;;;;;;;;;;4835718;29;20418;-74
2023/06/29 14:44:26;;;;;;;2.55;0.52;;;;;;;;;;4834338;29;20509;-76
2023/06/29 14:46:57;;;;;;;3.28;0.47;;;;;;;;;;4835670;29;20050;-74
2023/06/29 14:49:29;;;;;;;1.67;0.73;;;;;;;;;;4835675;29;20061;-74
2023/06/29 14:52:01;;;;;;;0.60;0.60;;;;;;;;;;4835204;29;20802;-74
2023/06/29 14:54:31;;;;;;;0.85;0.50;;;;;;;;;;4835417;29;20417;-75
2023/06/29 14:57:02;;;;;;;6.78;1.65;;;;;;;;;;4835392;29;20053;-76
2023/06/29 14:59:33;;;;;;;0.60;0.50;;;;;;;;;;4834000;29;20050;-76
2023/06/29 15:02:04;;;;;;;5.13;0.77;;;;;;;;;;4834903;29;20554;-75
2023/06/29 15:04:33;;;;;;;2.30;0.30;;;;;;;;;;4835279;29;20061;-74
2023/06/29 15:07:05;;;;;;;3.80;0.63;;;;;;;;;;4835201;29;20092;-75
2023/06/29 15:09:37;;;;;;;0.80;0.60;;;;;;;;;;4835926;29;20407;-75
2023/06/29 15:12:08;;;;;;;0.82;0.60;;;;;;;;;;4834974;29;20114;-76
2023/06/29 15:14:38;;;;;;;3.40;0.98;;;;;;;;;;4834992;29;20053;-75